Time;durP1;ratioP1;P1;durP2;ratioP2;P2;SDS_P1;SDS_P2;PMS_P1;PMS_P2;Temp;Humidity;BMP_temperature;BMP_pressure;BME280_temperature;BME280_humidity;BME280_pressure;Samples;Min_cycle;Max_cycle;Signal;HPM_P1;HPM_P2
2021/08/25 00:00:55;;;;;;;4.80;2.33;;;13.40;99.90;;;;;;4989662;28;20188;-79
2021/08/25 00:03:21;;;;;;;3.33;2.07;;;13.40;99.90;;;;;;4989418;28;20229;-79
2021/08/25 00:05:46;;;;;;;4.43;2.40;;;13.30;99.90;;;;;;4988776;28;20278;-79
2021/08/25 00:08:12;;;;;;;4.13;2.20;;;13.40;99.90;;;;;;4989134;28;20211;-79
2021/08/25 00:10:38;;;;;;;4.23;2.20;;;13.30;99.90;;;;;;4988159;28;20196;-79
2021/08/25 00:13:06;;;;;;;5.43;2.40;;;13.20;99.90;;;;;;5004939;28;20570;-79
2021/08/25 00:15:42;;;;;;;3.57;2.00;;;13.20;99.90;;;;;;4989888;28;20175;-79
2021/08/25 00:18:08;;;;;;;4.57;2.10;;;13.20;99.90;;;;;;4988516;28;20203;-79
2021/08/25 00:20:33;;;;;;;3.87;2.17;;;13.20;99.90;;;;;;4988064;28;20257;-79
2021/08/25 00:22:59;;;;;;;4.57;2.10;;;13.30;99.90;;;;;;4989005;28;20176;-79
2021/08/25 00:25:27;;;;;;;5.30;2.50;;;13.20;99.90;;;;;;4990221;28;20215;-79
2021/08/25 00:27:53;;;;;;;3.77;1.90;;;13.20;99.90;;;;;;4990348;28;20215;-79
2021/08/25 00:30:18;;;;;;;4.93;2.40;;;13.10;99.90;;;;;;4983148;28;20179;-81
2021/08/25 00:32:44;;;;;;;3.70;2.20;;;13.10;99.90;;;;;;4998979;28;20176;-83
2021/08/25 00:35:11;;;;;;;3.33;1.97;;;13.10;99.90;;;;;;4982699;28;20225;-81
2021/08/25 00:37:37;;;;;;;4.27;2.23;;;13.00;99.90;;;;;;4982934;28;20221;-81
2021/08/25 00:40:03;;;;;;;4.30;2.20;;;13.00;99.90;;;;;;4981672;28;20581;-82
2021/08/25 00:42:28;;;;;;;3.53;1.93;;;12.90;99.90;;;;;;4998518;28;20202;-81
2021/08/25 00:44:54;;;;;;;3.20;2.03;;;12.90;99.90;;;;;;4998211;28;20233;-82
2021/08/25 00:47:19;;;;;;;5.87;2.27;;;12.90;99.90;;;;;;4982436;28;20245;-82
2021/08/25 00:49:45;;;;;;;2.67;2.00;;;12.90;99.90;;;;;;4981773;28;20176;-81
2021/08/25 00:52:11;;;;;;;3.40;2.20;;;12.70;99.90;;;;;;4982383;28;20259;-82
2021/08/25 00:54:36;;;;;;;3.70;2.10;;;12.70;99.90;;;;;;4998331;28;20164;-82
2021/08/25 00:57:02;;;;;;;3.77;2.20;;;12.70;99.90;;;;;;4982691;28;20234;-81
2021/08/25 00:59:29;;;;;;;5.03;2.40;;;12.70;99.90;;;;;;4981604;28;20181;-81
2021/08/25 01:02:15;;;;;;;4.77;2.40;;;12.60;99.90;;;;;;4982040;28;20718;-81
2021/08/25 01:04:56;;;;;;;4.80;2.50;;;12.60;99.90;;;;;;5014505;28;20202;-81
2021/08/25 01:07:25;;;;;;;3.90;2.17;;;12.60;99.90;;;;;;4981988;28;20739;-81
2021/08/25 01:09:51;;;;;;;4.00;2.43;;;12.60;99.90;;;;;;4998856;28;20194;-82
2021/08/25 01:12:20;;;;;;;4.87;2.40;;;12.60;99.90;;;;;;4981875;28;20274;-82
2021/08/25 01:14:46;;;;;;;2.83;2.10;;;12.50;99.90;;;;;;4982437;28;20186;-81
2021/08/25 01:17:11;;;;;;;3.80;2.00;;;12.60;99.90;;;;;;4981974;28;20200;-81
2021/08/25 01:19:51;;;;;;;4.20;2.30;;;12.60;99.90;;;;;;4982098;28;20210;-82
2021/08/25 01:22:19;;;;;;;5.40;2.57;;;12.50;99.90;;;;;;4982607;28;20684;-81
2021/08/25 01:24:47;;;;;;;4.03;2.47;;;12.50;99.90;;;;;;4998955;28;20575;-81
2021/08/25 01:27:12;;;;;;;4.07;2.40;;;12.50;99.90;;;;;;4981615;28;20210;-81
2021/08/25 01:29:38;;;;;;;4.70;2.40;;;12.40;99.90;;;;;;4981650;28;20556;-82
2021/08/25 01:32:04;;;;;;;4.10;2.30;;;12.40;99.90;;;;;;4981720;28;20190;-82
2021/08/25 01:34:29;;;;;;;5.13;2.40;;;12.40;99.90;;;;;;4981541;28;20226;-82
2021/08/25 01:36:55;;;;;;;4.80;2.17;;;12.40;99.90;;;;;;4997565;28;20214;-81
2021/08/25 01:39:21;;;;;;;3.93;2.30;;;12.30;99.90;;;;;;4997787;28;20867;-82
2021/08/25 01:41:47;;;;;;;5.13;2.30;;;12.20;99.90;;;;;;4981631;28;20270;-82
2021/08/25 01:44:13;;;;;;;4.07;2.40;;;12.20;99.90;;;;;;4982467;28;20238;-81
2021/08/25 01:46:40;;;;;;;4.50;2.47;;;12.20;99.90;;;;;;4981516;28;20180;-82
2021/08/25 01:49:06;;;;;;;3.97;2.40;;;12.30;99.90;;;;;;4997456;28;20266;-83
2021/08/25 01:51:32;;;;;;;3.60;2.23;;;12.20;99.90;;;;;;4997488;28;20267;-81
2021/08/25 01:53:58;;;;;;;4.83;2.50;;;12.20;99.90;;;;;;4997638;28;20214;-82
2021/08/25 01:56:24;;;;;;;3.83;2.40;;;12.10;99.90;;;;;;4981112;28;20622;-82
2021/08/25 01:58:49;;;;;;;4.60;2.40;;;12.10;99.90;;;;;;4996951;28;20286;-81
2021/08/25 02:01:15;;;;;;;6.20;2.53;;;12.00;99.90;;;;;;4981277;28;20219;-81
2021/08/25 02:03:40;;;;;;;2.77;2.03;;;12.00;99.90;;;;;;4997545;28;20221;-81
2021/08/25 02:06:06;;;;;;;4.50;2.07;;;12.00;99.90;;;;;;4981551;28;20175;-82
2021/08/25 02:08:31;;;;;;;4.17;2.50;;;12.00;99.90;;;;;;4997361;28;20199;-82
2021/08/25 02:10:58;;;;;;;4.30;2.20;;;12.00;99.90;;;;;;4980967;28;20185;-81
2021/08/25 02:13:23;;;;;;;6.40;2.63;;;12.00;99.90;;;;;;4997712;28;20210;-82
2021/08/25 02:15:49;;;;;;;6.07;2.70;;;12.00;99.90;;;;;;4980807;28;20556;-82
2021/08/25 02:18:15;;;;;;;4.87;3.57;;;11.90;99.90;;;;;;4981396;28;20261;-81
2021/08/25 02:20:40;;;;;;;4.77;2.70;;;11.90;99.90;;;;;;4980991;28;20179;-81
2021/08/25 02:23:06;;;;;;;4.20;2.43;;;11.90;99.90;;;;;;4981457;28;20190;-81
2021/08/25 02:25:31;;;;;;;5.27;2.67;;;11.80;99.90;;;;;;4997398;28;20179;-81
2021/08/25 02:27:57;;;;;;;3.97;2.40;;;11.90;99.90;;;;;;4981285;28;20256;-81
2021/08/25 02:30:23;;;;;;;4.17;2.43;;;11.80;99.90;;;;;;4980576;28;20175;-82
2021/08/25 02:32:48;;;;;;;4.30;2.53;;;11.80;99.90;;;;;;4997364;28;20179;-81
2021/08/25 02:35:14;;;;;;;3.50;2.20;;;11.80;99.90;;;;;;4980612;28;20202;-82
2021/08/25 02:37:39;;;;;;;4.37;2.80;;;11.80;99.90;;;;;;4980834;28;20210;-82
2021/08/25 02:40:06;;;;;;;3.90;2.43;;;11.70;99.90;;;;;;4980566;28;20171;-81
2021/08/25 02:42:31;;;;;;;4.73;2.47;;;11.70;99.90;;;;;;4995330;28;20179;-81
2021/08/25 02:44:57;;;;;;;3.93;2.30;;;11.70;99.90;;;;;;4980239;28;20181;-82
2021/08/25 02:47:23;;;;;;;4.23;2.60;;;11.70;99.90;;;;;;4980063;28;20212;-82
2021/08/25 02:49:48;;;;;;;4.80;2.90;;;11.80;99.90;;;;;;4979993;28;20245;-81
2021/08/25 02:52:14;;;;;;;4.27;2.73;;;11.70;99.90;;;;;;4980571;28;20266;-82
2021/08/25 02:54:39;;;;;;;4.23;2.80;;;11.60;99.90;;;;;;4997094;28;20548;-82
2021/08/25 02:57:05;;;;;;;4.33;2.70;;;11.60;99.90;;;;;;4980789;28;20281;-81
2021/08/25 02:59:30;;;;;;;4.47;2.77;;;11.60;99.90;;;;;;4980829;28;20179;-81
2021/08/25 03:01:56;;;;;;;4.07;2.57;;;11.60;99.90;;;;;;4996938;28;20176;-81
2021/08/25 03:04:21;;;;;;;4.07;2.70;;;11.60;99.90;;;;;;4980157;28;20176;-82
2021/08/25 03:06:47;;;;;;;5.63;2.43;;;11.50;99.90;;;;;;4996711;28;20575;-82
2021/08/25 03:09:13;;;;;;;5.00;2.87;;;11.50;99.90;;;;;;5016416;28;20187;-81
2021/08/25 03:11:38;;;;;;;4.17;2.40;;;11.50;99.90;;;;;;5016479;28;20179;-81
2021/08/25 03:14:04;;;;;;;4.80;2.80;;;11.50;99.90;;;;;;5016858;28;20179;-81
2021/08/25 03:16:30;;;;;;;4.40;2.70;;;11.40;99.90;;;;;;5000367;28;20639;-81
2021/08/25 03:18:56;;;;;;;4.87;2.93;;;11.40;99.90;;;;;;5016688;28;20180;-81
2021/08/25 03:21:21;;;;;;;4.17;2.70;;;11.40;99.90;;;;;;5016287;28;20187;-82
2021/08/25 03:23:47;;;;;;;4.87;2.93;;;11.40;99.90;;;;;;4999656;28;20664;-81
2021/08/25 03:26:12;;;;;;;5.07;2.93;;;11.40;99.90;;;;;;5000166;28;20176;-81
2021/08/25 03:28:38;;;;;;;5.07;3.07;;;11.40;99.90;;;;;;5016992;28;20289;-81
2021/08/25 03:31:04;;;;;;;5.00;3.30;;;11.40;99.90;;;;;;5000979;28;20176;-82
2021/08/25 03:33:30;;;;;;;4.67;3.10;;;11.40;99.90;;;;;;5017007;28;20226;-83
2021/08/25 03:35:55;;;;;;;5.93;2.80;;;11.40;99.90;;;;;;5000707;28;20192;-82
2021/08/25 03:38:21;;;;;;;4.10;3.10;;;11.30;99.90;;;;;;5001325;28;20210;-82
2021/08/25 03:40:46;;;;;;;5.43;3.00;;;11.30;99.90;;;;;;5000935;28;20187;-81
2021/08/25 03:43:12;;;;;;;6.67;2.93;;;11.20;99.90;;;;;;5000144;28;20644;-81
2021/08/25 03:45:38;;;;;;;4.03;2.87;;;11.20;99.90;;;;;;4999285;28;20183;-81
2021/08/25 03:48:03;;;;;;;8.43;3.03;;;11.20;99.90;;;;;;4999401;28;20711;-81
2021/08/25 03:50:29;;;;;;;6.07;3.20;;;11.10;99.90;;;;;;4999122;28;20187;-81
2021/08/25 03:52:54;;;;;;;5.90;2.97;;;11.20;99.90;;;;;;4999603;28;20183;-81
2021/08/25 03:55:20;;;;;;;4.80;3.10;;;11.20;99.90;;;;;;4999789;28;20189;-81
2021/08/25 03:57:45;;;;;;;4.53;3.10;;;11.10;99.90;;;;;;4999717;28;20210;-81
2021/08/25 04:00:11;;;;;;;4.83;3.23;;;11.20;99.90;;;;;;5015476;28;20182;-81
2021/08/25 04:02:37;;;;;;;5.50;3.10;;;11.20;99.90;;;;;;5015092;28;20190;-82
2021/08/25 04:05:03;;;;;;;4.10;3.00;;;11.20;99.90;;;;;;4999280;28;20187;-82
2021/08/25 04:07:28;;;;;;;4.37;3.00;;;11.10;99.90;;;;;;4998850;28;20695;-81
2021/08/25 04:09:54;;;;;;;8.20;3.47;;;11.10;99.90;;;;;;4998801;28;20180;-81
2021/08/25 04:12:19;;;;;;;8.20;3.27;;;11.10;99.90;;;;;;5015567;28;20262;-81
2021/08/25 04:14:45;;;;;;;6.77;2.97;;;11.10;99.90;;;;;;4999049;28;20281;-82
2021/08/25 04:17:10;;;;;;;4.97;2.77;;;11.10;99.90;;;;;;4999519;28;20210;-81
2021/08/25 04:19:36;;;;;;;5.70;3.00;;;11.10;99.90;;;;;;4998251;28;20182;-81
2021/08/25 04:22:02;;;;;;;5.73;3.43;;;11.10;99.90;;;;;;5015974;28;20274;-81
2021/08/25 04:24:28;;;;;;;5.50;3.10;;;11.10;99.90;;;;;;4998673;28;20237;-81
2021/08/25 04:26:53;;;;;;;6.63;3.47;;;11.00;99.90;;;;;;4999296;28;20229;-81
2021/08/25 04:29:19;;;;;;;4.83;2.90;;;11.00;99.90;;;;;;5015244;28;20554;-81
2021/08/25 04:31:44;;;;;;;5.23;3.30;;;11.10;99.90;;;;;;4998965;28;20179;-81
2021/08/25 04:34:10;;;;;;;6.83;3.43;;;11.00;99.90;;;;;;4998752;28;20230;-81
2021/08/25 04:36:36;;;;;;;5.90;3.87;;;11.00;99.90;;;;;;4998570;28;20252;-82
2021/08/25 04:39:02;;;;;;;5.90;3.77;;;11.10;99.90;;;;;;4998507;28;20183;-82
2021/08/25 04:41:28;;;;;;;5.43;3.77;;;11.00;99.90;;;;;;5017559;28;20175;-82
2021/08/25 04:43:53;;;;;;;5.23;3.60;;;11.00;99.90;;;;;;4997135;28;20245;-82
2021/08/25 04:46:19;;;;;;;5.90;3.77;;;11.00;99.90;;;;;;5007999;28;20192;-82
2021/08/25 04:48:45;;;;;;;6.60;3.93;;;11.00;99.90;;;;;;4997440;28;20608;-82
2021/08/25 04:51:11;;;;;;;7.00;3.87;;;11.00;99.90;;;;;;4998030;28;20254;-82
2021/08/25 04:53:38;;;;;;;5.67;3.60;;;11.00;99.90;;;;;;4998156;28;20193;-81
2021/08/25 04:56:04;;;;;;;7.37;4.20;;;11.00;99.90;;;;;;4986782;28;20225;-81
2021/08/25 04:58:30;;;;;;;6.00;4.00;;;11.00;99.90;;;;;;4998416;28;20809;-81
2021/08/25 05:00:56;;;;;;;5.53;3.43;;;11.00;99.90;;;;;;4981670;28;20272;-81
2021/08/25 05:03:22;;;;;;;8.80;3.83;;;11.10;99.90;;;;;;4982094;28;20186;-81
2021/08/25 05:05:47;;;;;;;7.93;4.03;;;11.10;99.90;;;;;;4982337;28;20179;-81
2021/08/25 05:08:13;;;;;;;6.40;4.17;;;11.10;99.90;;;;;;4998635;28;20202;-81
2021/08/25 05:10:38;;;;;;;6.33;4.27;;;11.10;99.90;;;;;;4998326;28;20194;-81
2021/08/25 05:13:04;;;;;;;5.13;3.90;;;11.20;99.90;;;;;;4999131;28;20262;-81
2021/08/25 05:15:30;;;;;;;6.37;4.00;;;11.20;99.90;;;;;;4997655;28;20652;-79
2021/08/25 05:17:55;;;;;;;6.83;4.00;;;11.20;99.90;;;;;;4993361;28;20256;-81
2021/08/25 05:20:21;;;;;;;5.57;4.10;;;11.30;99.90;;;;;;4981909;28;20187;-82
2021/08/25 05:22:46;;;;;;;5.47;3.80;;;11.30;99.90;;;;;;4996342;28;20176;-82
2021/08/25 05:25:12;;;;;;;6.33;4.07;;;11.40;99.90;;;;;;5015188;28;20194;-81
2021/08/25 05:27:37;;;;;;;5.20;4.00;;;11.50;99.90;;;;;;4998437;28;20246;-81
2021/08/25 05:30:04;;;;;;;7.27;4.37;;;11.70;99.90;;;;;;4980795;28;20205;-81
2021/08/25 05:32:29;;;;;;;6.73;4.33;;;11.70;99.90;;;;;;4997465;28;20184;-81
2021/08/25 05:34:55;;;;;;;6.27;4.07;;;11.80;99.90;;;;;;4981032;28;20183;-79
2021/08/25 05:37:21;;;;;;;6.27;3.90;;;11.90;99.90;;;;;;4995633;28;20219;-79
2021/08/25 05:39:46;;;;;;;6.73;4.27;;;12.00;99.90;;;;;;4978206;28;20183;-79
2021/08/25 05:42:12;;;;;;;5.77;4.27;;;12.20;99.90;;;;;;4980231;28;20176;-78
2021/08/25 05:44:37;;;;;;;6.57;4.53;;;12.30;99.90;;;;;;4979413;28;20186;-79
2021/08/25 05:47:03;;;;;;;6.93;4.40;;;12.40;99.90;;;;;;4994993;28;20203;-79
2021/08/25 05:49:28;;;;;;;7.07;4.77;;;12.50;99.90;;;;;;4979593;28;20172;-78
2021/08/25 05:51:54;;;;;;;7.50;4.63;;;12.70;99.90;;;;;;4994393;28;20207;-78
2021/08/25 05:54:20;;;;;;;6.40;4.70;;;12.80;99.90;;;;;;4995858;28;20192;-78
2021/08/25 05:56:45;;;;;;;8.73;4.70;;;13.10;99.90;;;;;;5011345;28;20274;-79
2021/08/25 05:59:11;;;;;;;7.03;4.40;;;13.40;99.90;;;;;;4979259;28;20175;-79
2021/08/25 06:01:36;;;;;;;6.13;4.20;;;13.90;99.90;;;;;;4978428;28;20186;-78
2021/08/25 06:04:02;;;;;;;7.40;4.30;;;14.30;99.90;;;;;;4979895;28;20282;-79
2021/08/25 06:06:31;;;;;;;7.27;3.80;;;14.60;99.90;;;;;;4980321;28;20182;-79
2021/08/25 06:08:57;;;;;;;6.50;4.60;;;14.80;99.90;;;;;;4996230;28;20670;-78
2021/08/25 06:11:23;;;;;;;6.33;4.10;;;15.00;99.90;;;;;;4984885;28;20233;-80
2021/08/25 06:13:49;;;;;;;8.30;4.60;;;15.20;99.90;;;;;;4996879;28;20663;-79
2021/08/25 06:16:14;;;;;;;7.57;3.93;;;15.70;99.90;;;;;;4980906;28;20183;-79
2021/08/25 06:18:40;;;;;;;7.03;4.20;;;16.30;99.90;;;;;;4996311;28;20289;-79
2021/08/25 06:21:05;;;;;;;8.50;4.13;;;16.40;99.90;;;;;;4981027;28;20179;-79
2021/08/25 06:23:31;;;;;;;6.97;4.43;;;16.60;99.90;;;;;;4997913;28;20186;-79
2021/08/25 06:25:57;;;;;;;7.70;4.80;;;16.80;99.90;;;;;;4981026;28;20560;-79
2021/08/25 06:28:22;;;;;;;6.97;4.13;;;17.00;99.90;;;;;;4996460;28;20249;-79
2021/08/25 06:30:48;;;;;;;8.20;4.10;;;17.40;99.90;;;;;;5012767;28;20207;-79
2021/08/25 06:33:13;;;;;;;6.47;3.87;;;17.80;99.90;;;;;;5013464;28;20178;-79
2021/08/25 06:35:39;;;;;;;6.20;4.00;;;17.90;99.90;;;;;;5013163;28;20679;-79
2021/08/25 06:38:04;;;;;;;7.17;4.07;;;18.10;99.90;;;;;;4998649;28;20222;-82
2021/08/25 06:40:32;;;;;;;7.27;4.03;;;18.10;99.90;;;;;;5005914;28;20220;-84
2021/08/25 06:42:58;;;;;;;6.73;4.03;;;18.50;99.90;;;;;;4988661;28;20247;-80
2021/08/25 06:45:23;;;;;;;6.00;3.83;;;19.20;99.90;;;;;;4987370;28;20217;-81
2021/08/25 06:47:49;;;;;;;10.47;3.87;;;20.10;99.90;;;;;;4988648;28;20280;-80
2021/08/25 06:50:14;;;;;;;8.67;3.80;;;21.50;99.90;;;;;;5020901;28;20579;-83
2021/08/25 06:52:40;;;;;;;7.33;4.07;;;22.60;99.90;;;;;;4985937;28;20179;-80
2021/08/25 06:55:06;;;;;;;6.93;3.80;;;23.60;99.90;;;;;;5002369;28;20179;-81
2021/08/25 06:57:32;;;;;;;7.30;3.80;;;23.60;99.90;;;;;;5003745;28;20659;-81
2021/08/25 06:59:57;;;;;;;7.70;4.13;;;23.20;99.90;;;;;;4984391;28;20195;-80
2021/08/25 07:02:23;;;;;;;6.90;4.27;;;23.20;99.90;;;;;;5001970;28;20179;-83
2021/08/25 07:04:48;;;;;;;6.97;3.57;;;23.20;99.90;;;;;;4986153;28;20187;-81
2021/08/25 07:07:14;;;;;;;6.03;3.77;;;23.40;99.90;;;;;;5003335;28;20208;-83
2021/08/25 07:09:40;;;;;;;6.63;4.03;;;23.60;99.90;;;;;;4986317;28;20179;-85
2021/08/25 07:12:06;;;;;;;6.20;4.07;;;23.50;99.90;;;;;;5018095;28;20894;-82
2021/08/25 07:14:32;;;;;;;7.90;3.60;;;23.60;99.90;;;;;;5002560;28;20218;-82
2021/08/25 07:16:57;;;;;;;7.05;4.07;;;23.90;99.90;;;;;;4988732;28;20199;-81
2021/08/25 07:19:23;;;;;;;6.75;4.18;;;24.30;99.90;;;;;;4988562;28;20183;-83
2021/08/25 07:21:49;;;;;;;6.05;3.95;;;24.30;99.90;;;;;;4989398;28;20275;-81
2021/08/25 07:24:14;;;;;;;6.55;3.63;;;24.00;99.90;;;;;;5005822;28;20187;-81
2021/08/25 07:26:40;;;;;;;7.37;3.80;;;24.10;99.90;;;;;;5005671;28;20184;-81
2021/08/25 07:29:06;;;;;;;7.80;3.78;;;24.10;99.90;;;;;;5004812;28;20218;-81
2021/08/25 07:31:31;;;;;;;6.07;3.80;;;24.10;99.90;;;;;;5004690;28;20251;-84
2021/08/25 07:33:57;;;;;;;5.30;3.70;;;23.70;99.90;;;;;;5003990;28;20186;-81
2021/08/25 07:36:23;;;;;;;7.83;3.63;;;22.90;99.90;;;;;;5005323;28;20218;-81
2021/08/25 07:38:48;;;;;;;9.52;3.50;;;22.30;99.90;;;;;;5020975;28;20184;-81
2021/08/25 07:41:14;;;;;;;5.50;3.37;;;22.10;99.90;;;;;;4988143;28;20266;-83
2021/08/25 07:43:39;;;;;;;5.53;3.43;;;21.90;99.90;;;;;;4987002;28;20180;-85
2021/08/25 07:46:05;;;;;;;5.43;3.20;;;21.80;99.90;;;;;;5004202;28;20194;-81
2021/08/25 07:48:31;;;;;;;5.33;2.87;;;21.70;99.90;;;;;;5003531;28;20200;-81
2021/08/25 07:50:56;;;;;;;4.20;3.00;;;21.60;99.90;;;;;;4986332;28;20179;-83
2021/08/25 07:53:22;;;;;;;6.43;3.30;;;21.70;99.90;;;;;;5004461;28;20171;-85
2021/08/25 07:55:48;;;;;;;4.40;3.00;;;21.70;99.90;;;;;;4990930;28;20176;-81
2021/08/25 07:58:13;;;;;;;5.57;3.20;;;21.80;99.90;;;;;;5023537;28;20192;-81
2021/08/25 08:00:39;;;;;;;5.47;2.87;;;21.80;99.90;;;;;;5023384;28;20184;-81
2021/08/25 08:03:04;;;;;;;6.63;3.47;;;21.70;99.90;;;;;;4991123;28;20210;-84
2021/08/25 08:05:30;;;;;;;4.33;2.80;;;21.70;99.90;;;;;;4990863;28;20179;-83
2021/08/25 08:07:56;;;;;;;6.83;3.27;;;21.80;99.90;;;;;;4991184;28;20215;-81
2021/08/25 08:10:22;;;;;;;4.40;3.07;;;21.80;99.90;;;;;;4986004;28;20172;-80
2021/08/25 08:12:47;;;;;;;5.40;3.20;;;21.90;99.90;;;;;;5000663;28;20543;-80
2021/08/25 08:15:14;;;;;;;5.13;3.20;;;22.10;99.90;;;;;;4999963;28;20176;-80
2021/08/25 08:17:42;;;;;;;5.80;3.23;;;22.20;99.90;;;;;;4983282;28;20218;-79
2021/08/25 08:20:08;;;;;;;6.00;3.20;;;22.20;99.90;;;;;;4989395;28;20187;-80
2021/08/25 08:22:33;;;;;;;5.67;3.23;;;22.20;99.90;;;;;;4983985;28;20566;-80
2021/08/25 08:24:59;;;;;;;6.10;2.90;;;22.50;99.90;;;;;;4980732;28;20615;-79
2021/08/25 08:27:25;;;;;;;5.87;3.13;;;22.60;99.90;;;;;;4997102;28;20195;-79
2021/08/25 08:29:50;;;;;;;4.33;2.63;;;22.40;99.90;;;;;;4980550;28;20198;-79
2021/08/25 08:32:16;;;;;;;4.43;2.57;;;22.20;99.90;;;;;;4981533;28;20182;-79
2021/08/25 08:34:41;;;;;;;5.30;2.53;;;22.20;99.90;;;;;;4982048;28;20269;-79
2021/08/25 08:37:07;;;;;;;4.80;2.60;;;22.20;99.90;;;;;;4998448;28;20207;-79
2021/08/25 08:39:32;;;;;;;4.17;2.33;;;22.30;99.90;;;;;;4982052;28;20207;-79
2021/08/25 08:41:58;;;;;;;5.67;2.80;;;22.40;99.90;;;;;;4983836;28;20210;-79
2021/08/25 08:44:24;;;;;;;4.03;2.80;;;22.60;99.90;;;;;;5000241;28;20187;-79
2021/08/25 08:46:50;;;;;;;6.30;3.07;;;22.60;99.90;;;;;;4999933;28;20206;-79
2021/08/25 08:49:16;;;;;;;4.17;2.70;;;22.50;99.90;;;;;;4999403;28;20199;-79
2021/08/25 08:51:42;;;;;;;6.07;3.53;;;22.50;99.90;;;;;;4983230;28;20210;-79
2021/08/25 08:54:07;;;;;;;6.53;3.57;;;22.30;99.90;;;;;;4982858;28;20179;-78
2021/08/25 08:56:33;;;;;;;4.40;2.90;;;22.10;99.90;;;;;;4983298;28;20263;-80
2021/08/25 08:59:00;;;;;;;4.93;3.00;;;21.80;99.90;;;;;;5015143;28;20261;-79
2021/08/25 09:01:26;;;;;;;4.80;2.97;;;21.70;99.90;;;;;;4983226;28;20190;-78
2021/08/25 09:03:52;;;;;;;4.37;2.67;;;21.80;99.90;;;;;;4982876;28;20190;-79
2021/08/25 09:06:17;;;;;;;5.57;3.03;;;22.10;99.90;;;;;;4982233;28;20637;-80
2021/08/25 09:08:43;;;;;;;4.40;2.67;;;22.30;99.90;;;;;;5014682;28;20211;-80
2021/08/25 09:11:13;;;;;;;3.83;2.90;;;22.50;99.90;;;;;;4998094;28;20190;-80
2021/08/25 09:13:50;;;;;;;3.90;2.60;;;22.60;99.90;;;;;;4983143;28;20176;-79
2021/08/25 09:16:29;;;;;;;3.63;2.30;;;22.60;99.90;;;;;;4992429;28;20163;-79
2021/08/25 09:19:03;;;;;;;3.73;2.60;;;22.40;99.90;;;;;;5003914;28;20607;-79
2021/08/25 09:21:31;;;;;;;3.53;2.30;;;22.50;99.90;;;;;;5026440;28;20268;-80
2021/08/25 09:23:56;;;;;;;3.20;2.07;;;22.70;99.90;;;;;;5007203;28;20649;-79
2021/08/25 09:26:22;;;;;;;3.80;2.00;;;22.70;99.90;;;;;;5008410;28;20180;-79
2021/08/25 09:28:49;;;;;;;5.57;2.17;;;22.80;99.90;;;;;;4993049;28;20244;-79
2021/08/25 09:31:14;;;;;;;3.63;1.90;;;22.80;99.90;;;;;;4991060;28;20176;-79
2021/08/25 09:33:44;;;;;;;3.90;2.30;;;22.60;99.90;;;;;;5002176;28;20251;-80
2021/08/25 09:36:11;;;;;;;4.60;2.20;;;22.60;99.90;;;;;;4981580;28;20191;-80
2021/08/25 09:38:37;;;;;;;3.37;2.40;;;22.70;99.90;;;;;;5014241;28;20338;-79
2021/08/25 09:41:10;;;;;;;3.77;2.30;;;22.70;99.90;;;;;;4997096;28;20297;-80
2021/08/25 09:43:37;;;;;;;4.40;2.70;;;22.50;99.90;;;;;;4998637;28;20258;-80
2021/08/25 09:46:11;;;;;;;4.30;2.77;;;22.60;99.90;;;;;;4997899;28;20310;-79
2021/08/25 09:48:51;;;;;;;6.93;2.67;;;22.60;99.90;;;;;;4998079;28;20203;-79
2021/08/25 09:51:25;;;;;;;8.13;4.43;;;22.50;99.90;;;;;;4998719;28;20633;-79
2021/08/25 09:54:02;;;;;;;3.73;2.63;;;22.50;99.90;;;;;;4981499;28;20191;-80
2021/08/25 09:56:32;;;;;;;4.40;2.60;;;22.50;99.90;;;;;;5005261;28;20198;-80
2021/08/25 09:58:58;;;;;;;5.43;2.53;;;22.50;99.90;;;;;;5004321;28;20229;-79
2021/08/25 10:01:23;;;;;;;3.33;2.27;;;22.60;99.90;;;;;;4991115;28;20179;-79
2021/08/25 10:03:49;;;;;;;4.23;2.50;;;22.60;99.90;;;;;;4992556;28;21226;-79
2021/08/25 10:06:16;;;;;;;3.17;2.33;;;22.70;99.90;;;;;;4985496;28;20167;-79
2021/08/25 10:08:41;;;;;;;3.77;2.37;;;22.90;99.90;;;;;;4978011;28;20992;-78
2021/08/25 10:11:07;;;;;;;3.97;2.53;;;23.20;99.90;;;;;;4995411;28;20235;-80
2021/08/25 10:13:33;;;;;;;3.37;2.30;;;23.20;99.90;;;;;;4979417;28;20176;-80
2021/08/25 10:15:58;;;;;;;3.50;2.40;;;22.90;99.90;;;;;;4979660;28;20199;-80
2021/08/25 10:18:42;;;;;;;4.20;2.37;;;22.80;99.90;;;;;;4981804;28;20206;-79
2021/08/25 10:21:33;;;;;;;3.93;2.37;;;22.80;99.90;;;;;;4979648;28;20184;-78
2021/08/25 10:24:02;;;;;;;3.37;2.17;;;22.90;99.90;;;;;;4994895;28;20184;-80
2021/08/25 10:26:28;;;;;;;3.77;2.43;;;23.00;99.90;;;;;;5013234;28;20296;-79
2021/08/25 10:29:11;;;;;;;5.60;2.60;;;23.10;99.90;;;;;;4997712;28;20206;-79
2021/08/25 10:31:49;;;;;;;4.77;2.77;;;23.10;99.90;;;;;;4997918;28;20207;-79
2021/08/25 10:34:18;;;;;;;3.80;2.60;;;22.90;99.90;;;;;;5012857;28;20179;-79
2021/08/25 10:36:44;;;;;;;5.23;2.23;;;22.80;99.90;;;;;;4996544;28;20215;-78
2021/08/25 10:39:28;;;;;;;3.53;2.37;;;22.80;99.90;;;;;;4980133;28;20190;-79
2021/08/25 10:41:54;;;;;;;4.70;2.40;;;23.00;99.90;;;;;;5013299;28;20599;-79
2021/08/25 10:44:38;;;;;;;4.17;2.27;;;23.10;99.90;;;;;;4996656;28;20192;-79
2021/08/25 10:47:04;;;;;;;3.00;2.20;;;23.20;99.90;;;;;;5013928;28;20199;-79
2021/08/25 10:49:33;;;;;;;4.47;2.10;;;23.20;99.90;;;;;;5012813;28;20544;-79
2021/08/25 10:52:14;;;;;;;3.13;2.17;;;23.30;99.90;;;;;;5012075;28;20180;-80
2021/08/25 10:54:58;;;;;;;3.33;2.23;;;23.30;99.90;;;;;;5012828;28;20176;-79
2021/08/25 10:57:25;;;;;;;2.80;2.10;;;23.40;99.90;;;;;;4982893;28;20708;-78
2021/08/25 10:59:50;;;;;;;3.87;2.43;;;23.60;99.90;;;;;;4981480;28;20218;-79
2021/08/25 11:02:16;;;;;;;3.47;2.23;;;23.60;99.90;;;;;;4980768;28;20176;-79
2021/08/25 11:04:42;;;;;;;3.77;2.50;;;23.70;99.90;;;;;;4980473;28;20347;-80
2021/08/25 11:07:12;;;;;;;3.70;2.50;;;23.70;99.90;;;;;;4979964;28;20199;-80
2021/08/25 11:09:42;;;;;;;5.23;2.60;;;23.70;99.90;;;;;;4982473;28;20252;-79
2021/08/25 11:12:15;;;;;;;3.53;2.47;;;23.70;99.90;;;;;;4996516;28;20200;-80
2021/08/25 11:14:57;;;;;;;4.50;2.60;;;23.70;99.90;;;;;;4981560;28;20176;-79
2021/08/25 11:17:27;;;;;;;3.53;2.07;;;23.70;99.90;;;;;;4999593;28;20230;-78
2021/08/25 11:19:52;;;;;;;3.83;2.60;;;23.70;99.90;;;;;;4981951;28;20180;-81
2021/08/25 11:22:32;;;;;;;4.70;2.53;;;23.70;99.90;;;;;;5020169;28;20262;-80
2021/08/25 11:24:58;;;;;;;3.87;2.20;;;23.50;99.90;;;;;;5002997;28;20190;-80
2021/08/25 11:27:25;;;;;;;3.40;2.40;;;23.50;99.90;;;;;;5002804;28;20312;-80
2021/08/25 11:30:04;;;;;;;2.97;2.00;;;23.50;99.90;;;;;;5021927;28;20176;-80
2021/08/25 11:32:29;;;;;;;3.17;1.97;;;23.50;99.90;;;;;;5005309;28;20175;-80
2021/08/25 11:34:56;;;;;;;3.87;2.47;;;23.60;99.90;;;;;;5006194;28;20667;-80
2021/08/25 11:37:21;;;;;;;3.47;2.40;;;23.70;99.90;;;;;;5005353;28;20564;-81
2021/08/25 11:40:03;;;;;;;3.60;2.53;;;23.80;99.90;;;;;;4989695;28;20195;-80
2021/08/25 11:42:38;;;;;;;3.27;2.30;;;23.80;99.90;;;;;;4993521;28;20183;-80
2021/08/25 11:45:33;;;;;;;3.20;2.37;;;23.90;99.90;;;;;;5008595;28;20175;-79
2021/08/25 11:47:59;;;;;;;4.30;2.00;;;23.90;99.90;;;;;;5003111;28;20215;-80
2021/08/25 11:50:26;;;;;;;5.00;2.27;;;24.00;99.90;;;;;;5006504;28;20222;-80
2021/08/25 11:52:52;;;;;;;4.05;2.30;;;24.00;99.90;;;;;;4990381;28;20179;-80
2021/08/25 11:55:18;;;;;;;3.30;2.37;;;24.00;99.90;;;;;;5006549;28;20176;-80
2021/08/25 11:57:45;;;;;;;4.00;2.47;;;24.00;99.90;;;;;;4990405;28;20608;-79
2021/08/25 12:00:12;;;;;;;3.40;2.20;;;24.00;99.90;;;;;;5005827;28;20188;-80
2021/08/25 12:02:54;;;;;;;4.53;2.40;;;24.00;99.90;;;;;;4990894;28;20191;-79
2021/08/25 12:05:22;;;;;;;3.50;2.33;;;24.00;99.90;;;;;;5005979;28;20620;-80
2021/08/25 12:08:01;;;;;;;4.60;2.50;;;23.90;99.90;;;;;;5021344;28;20199;-80
2021/08/25 12:10:27;;;;;;;4.47;2.30;;;23.90;99.90;;;;;;5005346;28;20861;-80
2021/08/25 12:12:53;;;;;;;3.73;2.43;;;23.90;99.90;;;;;;4989394;28;20218;-80
2021/08/25 12:15:18;;;;;;;3.27;2.20;;;23.90;99.90;;;;;;5004365;28;20172;-80
2021/08/25 12:17:59;;;;;;;4.93;2.40;;;23.80;99.90;;;;;;5020728;28;20204;-81
2021/08/25 12:20:37;;;;;;;3.37;2.20;;;23.90;99.90;;;;;;4991163;28;20179;-81
2021/08/25 12:23:06;;;;;;;3.27;2.30;;;23.80;99.90;;;;;;5007788;28;20262;-81
2021/08/25 12:25:41;;;;;;;5.23;2.43;;;23.80;99.90;;;;;;4991854;28;20249;-81
2021/08/25 12:28:07;;;;;;;5.07;2.53;;;23.80;99.90;;;;;;4993674;28;20759;-82
2021/08/25 12:30:36;;;;;;;4.57;2.20;;;24.00;99.90;;;;;;5006018;28;20182;-80
2021/08/25 12:33:05;;;;;;;5.00;2.63;;;24.10;99.90;;;;;;4989142;28;20680;-80
2021/08/25 12:35:31;;;;;;;3.63;2.20;;;24.00;99.90;;;;;;5005826;28;20176;-80
2021/08/25 12:37:57;;;;;;;3.63;2.50;;;24.00;99.90;;;;;;5029713;22;20676;-80
2021/08/25 12:40:23;;;;;;;3.97;2.37;;;24.10;99.90;;;;;;5017058;28;20183;-79
2021/08/25 12:42:49;;;;;;;4.90;2.30;;;24.20;99.90;;;;;;5004045;28;20168;-82
2021/08/25 12:45:15;;;;;;;5.10;2.67;;;24.20;99.90;;;;;;4984843;28;20195;-79
2021/08/25 12:47:41;;;;;;;4.63;2.70;;;24.20;99.90;;;;;;5019065;28;20237;-82